sensor_id;sensor_type;location;lat;lon;timestamp;temperature;humidity
18454;DHT22;9356;52.202;20.950;2022-07-05T00:00:34;24.40;79.90
18454;DHT22;9356;52.202;20.950;2022-07-05T00:01:36;24.40;79.70
18454;DHT22;9356;52.202;20.950;2022-07-05T00:02:40;24.40;79.90
18454;DHT22;9356;52.202;20.950;2022-07-05T00:03:43;24.30;79.50
18454;DHT22;9356;52.202;20.950;2022-07-05T00:04:47;24.30;80.00
18454;DHT22;9356;52.202;20.950;2022-07-05T00:05:50;24.20;80.20
18454;DHT22;9356;52.202;20.950;2022-07-05T00:06:53;24.20;79.60
18454;DHT22;9356;52.202;20.950;2022-07-05T00:08:14;24.20;80.60
18454;DHT22;9356;52.202;20.950;2022-07-05T00:09:19;24.20;80.40
18454;DHT22;9356;52.202;20.950;2022-07-05T00:10:23;24.20;80.30
18454;DHT22;9356;52.202;20.950;2022-07-05T00:11:25;24.20;79.70
18454;DHT22;9356;52.202;20.950;2022-07-05T00:12:30;24.10;79.50
18454;DHT22;9356;52.202;20.950;2022-07-05T00:13:34;24.20;79.70
18454;DHT22;9356;52.202;20.950;2022-07-05T00:14:38;24.10;80.00
18454;DHT22;9356;52.202;20.950;2022-07-05T00:15:41;24.10;79.90
18454;DHT22;9356;52.202;20.950;2022-07-05T00:16:45;24.10;79.80
18454;DHT22;9356;52.202;20.950;2022-07-05T00:17:48;24.10;79.50
18454;DHT22;9356;52.202;20.950;2022-07-05T00:18:51;24.10;79.80
18454;DHT22;9356;52.202;20.950;2022-07-05T00:19:55;24.00;78.70
18454;DHT22;9356;52.202;20.950;2022-07-05T00:20:57;24.00;78.40
18454;DHT22;9356;52.202;20.950;2022-07-05T00:22:03;24.00;78.90
18454;DHT22;9356;52.202;20.950;2022-07-05T00:23:05;23.90;78.90
18454;DHT22;9356;52.202;20.950;2022-07-05T00:24:08;23.90;78.50
18454;DHT22;9356;52.202;20.950;2022-07-05T00:25:13;23.90;78.80
18454;DHT22;9356;52.202;20.950;2022-07-05T00:26:17;23.70;78.90
18454;DHT22;9356;52.202;20.950;2022-07-05T00:27:19;23.30;79.30
18454;DHT22;9356;52.202;20.950;2022-07-05T00:28:22;23.70;78.30
18454;DHT22;9356;52.202;20.950;2022-07-05T00:29:25;23.70;79.40
18454;DHT22;9356;52.202;20.950;2022-07-05T00:30:29;23.80;79.30
18454;DHT22;9356;52.202;20.950;2022-07-05T00:31:32;23.80;78.90
18454;DHT22;9356;52.202;20.950;2022-07-05T00:32:36;23.80;78.20
18454;DHT22;9356;52.202;20.950;2022-07-05T00:33:39;23.80;78.20
18454;DHT22;9356;52.202;20.950;2022-07-05T00:34:43;23.80;78.30
18454;DHT22;9356;52.202;20.950;2022-07-05T00:35:46;23.90;78.10
18454;DHT22;9356;52.202;20.950;2022-07-05T00:36:50;23.90;77.10
18454;DHT22;9356;52.202;20.950;2022-07-05T00:37:52;24.00;77.80
18454;DHT22;9356;52.202;20.950;2022-07-05T00:38:56;24.00;77.50
18454;DHT22;9356;52.202;20.950;2022-07-05T00:39:58;24.10;77.30
18454;DHT22;9356;52.202;20.950;2022-07-05T00:41:04;24.10;76.80
18454;DHT22;9356;52.202;20.950;2022-07-05T00:42:07;24.10;76.30
18454;DHT22;9356;52.202;20.950;2022-07-05T00:43:10;24.20;76.80
18454;DHT22;9356;52.202;20.950;2022-07-05T00:44:14;24.20;75.80
18454;DHT22;9356;52.202;20.950;2022-07-05T00:45:17;24.20;76.00
18454;DHT22;9356;52.202;20.950;2022-07-05T00:46:22;24.20;76.20
18454;DHT22;9356;52.202;20.950;2022-07-05T00:47:24;24.20;76.20
18454;DHT22;9356;52.202;20.950;2022-07-05T00:48:28;24.30;76.20
18454;DHT22;9356;52.202;20.950;2022-07-05T00:49:31;24.20;75.30
18454;DHT22;9356;52.202;20.950;2022-07-05T00:50:35;24.10;74.50
18454;DHT22;9356;52.202;20.950;2022-07-05T00:51:45;24.10;75.30
18454;DHT22;9356;52.202;20.950;2022-07-05T00:53:08;24.10;75.80
18454;DHT22;9356;52.202;20.950;2022-07-05T00:54:12;24.20;75.70
18454;DHT22;9356;52.202;20.950;2022-07-05T00:55:15;23.90;74.80
18454;DHT22;9356;52.202;20.950;2022-07-05T00:56:24;24.00;75.60
18454;DHT22;9356;52.202;20.950;2022-07-05T00:57:27;24.00;75.80
18454;DHT22;9356;52.202;20.950;2022-07-05T00:58:32;24.10;76.30
18454;DHT22;9356;52.202;20.950;2022-07-05T00:59:35;24.00;75.80
18454;DHT22;9356;52.202;20.950;2022-07-05T01:00:38;23.90;75.50
18454;DHT22;9356;52.202;20.950;2022-07-05T01:01:42;23.90;76.80
18454;DHT22;9356;52.202;20.950;2022-07-05T01:02:45;23.90;75.90
18454;DHT22;9356;52.202;20.950;2022-07-05T01:03:48;23.80;76.20
18454;DHT22;9356;52.202;20.950;2022-07-05T01:04:51;23.80;76.30
18454;DHT22;9356;52.202;20.950;2022-07-05T01:05:55;23.70;76.40
18454;DHT22;9356;52.202;20.950;2022-07-05T01:06:58;23.70;76.80
18454;DHT22;9356;52.202;20.950;2022-07-05T01:08:02;23.70;77.10
18454;DHT22;9356;52.202;20.950;2022-07-05T01:09:07;23.70;77.50
18454;DHT22;9356;52.202;20.950;2022-07-05T01:10:11;23.60;77.10
18454;DHT22;9356;52.202;20.950;2022-07-05T01:11:14;23.50;77.60
18454;DHT22;9356;52.202;20.950;2022-07-05T01:12:19;22.90;77.30
18454;DHT22;9356;52.202;20.950;2022-07-05T01:13:22;23.90;77.90
18454;DHT22;9356;52.202;20.950;2022-07-05T01:14:26;23.70;77.30
18454;DHT22;9356;52.202;20.950;2022-07-05T01:15:29;23.90;77.20
18454;DHT22;9356;52.202;20.950;2022-07-05T01:16:32;23.70;77.00
18454;DHT22;9356;52.202;20.950;2022-07-05T01:17:36;23.60;77.70
18454;DHT22;9356;52.202;20.950;2022-07-05T01:18:41;23.50;77.70
18454;DHT22;9356;52.202;20.950;2022-07-05T01:19:45;23.50;77.70
18454;DHT22;9356;52.202;20.950;2022-07-05T01:20:49;23.40;78.50
18454;DHT22;9356;52.202;20.950;2022-07-05T01:21:51;23.40;78.10
18454;DHT22;9356;52.202;20.950;2022-07-05T01:22:57;23.40;78.50
18454;DHT22;9356;52.202;20.950;2022-07-05T01:24:02;23.40;78.90
18454;DHT22;9356;52.202;20.950;2022-07-05T01:25:05;23.00;78.60
18454;DHT22;9356;52.202;20.950;2022-07-05T01:26:08;23.30;79.20
18454;DHT22;9356;52.202;20.950;2022-07-05T01:27:11;23.40;79.40
18454;DHT22;9356;52.202;20.950;2022-07-05T01:28:15;23.40;79.40
18454;DHT22;9356;52.202;20.950;2022-07-05T01:29:18;23.40;79.30
18454;DHT22;9356;52.202;20.950;2022-07-05T01:30:23;23.30;78.20
18454;DHT22;9356;52.202;20.950;2022-07-05T01:31:25;23.30;78.90
18454;DHT22;9356;52.202;20.950;2022-07-05T01:32:29;23.20;78.80
18454;DHT22;9356;52.202;20.950;2022-07-05T01:33:33;21.90;78.60
18454;DHT22;9356;52.202;20.950;2022-07-05T01:34:39;23.10;80.80
18454;DHT22;9356;52.202;20.950;2022-07-05T01:35:44;23.10;79.50
18454;DHT22;9356;52.202;20.950;2022-07-05T01:36:48;23.00;79.80
18454;DHT22;9356;52.202;20.950;2022-07-05T01:37:52;23.00;79.90
18454;DHT22;9356;52.202;20.950;2022-07-05T01:38:56;22.90;80.40
18454;DHT22;9356;52.202;20.950;2022-07-05T01:40:01;22.90;80.30
18454;DHT22;9356;52.202;20.950;2022-07-05T01:41:04;22.90;80.50
18454;DHT22;9356;52.202;20.950;2022-07-05T01:42:08;22.90;81.30
18454;DHT22;9356;52.202;20.950;2022-07-05T01:43:10;22.90;81.90
18454;DHT22;9356;52.202;20.950;2022-07-05T01:44:15;22.90;82.10
18454;DHT22;9356;52.202;20.950;2022-07-05T01:45:18;22.90;80.80
18454;DHT22;9356;52.202;20.950;2022-07-05T01:46:38;22.80;80.80
18454;DHT22;9356;52.202;20.950;2022-07-05T01:47:44;22.60;80.90
18454;DHT22;9356;52.202;20.950;2022-07-05T01:48:53;22.60;82.80
18454;DHT22;9356;52.202;20.950;2022-07-05T01:50:00;22.50;82.00
18454;DHT22;9356;52.202;20.950;2022-07-05T01:51:09;22.40;82.50
18454;DHT22;9356;52.202;20.950;2022-07-05T01:52:18;22.30;82.50
18454;DHT22;9356;52.202;20.950;2022-07-05T01:53:26;22.30;82.30
18454;DHT22;9356;52.202;20.950;2022-07-05T01:54:31;22.20;82.70
18454;DHT22;9356;52.202;20.950;2022-07-05T01:55:34;22.20;83.10
18454;DHT22;9356;52.202;20.950;2022-07-05T01:56:37;22.20;83.40
18454;DHT22;9356;52.202;20.950;2022-07-05T01:57:41;22.30;83.00
18454;DHT22;9356;52.202;20.950;2022-07-05T01:58:45;22.30;83.70
18454;DHT22;9356;52.202;20.950;2022-07-05T01:59:47;22.30;83.70
18454;DHT22;9356;52.202;20.950;2022-07-05T02:00:53;22.30;83.40
18454;DHT22;9356;52.202;20.950;2022-07-05T02:01:57;22.30;82.50
18454;DHT22;9356;52.202;20.950;2022-07-05T02:03:01;22.30;83.50
18454;DHT22;9356;52.202;20.950;2022-07-05T02:04:06;22.30;84.50
18454;DHT22;9356;52.202;20.950;2022-07-05T02:05:10;22.40;83.70
18454;DHT22;9356;52.202;20.950;2022-07-05T02:06:14;22.50;83.40
18454;DHT22;9356;52.202;20.950;2022-07-05T02:07:18;22.50;83.50
18454;DHT22;9356;52.202;20.950;2022-07-05T02:08:21;22.80;83.20
18454;DHT22;9356;52.202;20.950;2022-07-05T02:09:33;22.60;82.40
18454;DHT22;9356;52.202;20.950;2022-07-05T02:10:38;22.40;81.80
18454;DHT22;9356;52.202;20.950;2022-07-05T02:11:41;22.60;82.50
18454;DHT22;9356;52.202;20.950;2022-07-05T02:12:45;22.70;82.40
18454;DHT22;9356;52.202;20.950;2022-07-05T02:13:48;20.10;80.60
18454;DHT22;9356;52.202;20.950;2022-07-05T02:14:52;22.60;82.00
18454;DHT22;9356;52.202;20.950;2022-07-05T02:15:56;22.60;82.60
18454;DHT22;9356;52.202;20.950;2022-07-05T02:16:59;22.50;81.80
18454;DHT22;9356;52.202;20.950;2022-07-05T02:18:05;22.50;81.70
18454;DHT22;9356;52.202;20.950;2022-07-05T02:19:09;22.40;82.70
18454;DHT22;9356;52.202;20.950;2022-07-05T02:20:16;22.40;83.20
18454;DHT22;9356;52.202;20.950;2022-07-05T02:21:19;22.40;83.10
18454;DHT22;9356;52.202;20.950;2022-07-05T02:22:24;22.40;82.80
18454;DHT22;9356;52.202;20.950;2022-07-05T02:23:27;22.40;82.20
18454;DHT22;9356;52.202;20.950;2022-07-05T02:24:32;22.30;82.30
18454;DHT22;9356;52.202;20.950;2022-07-05T02:25:45;22.20;82.60
18454;DHT22;9356;52.202;20.950;2022-07-05T02:26:53;22.10;83.30
18454;DHT22;9356;52.202;20.950;2022-07-05T02:27:57;22.10;83.40
18454;DHT22;9356;52.202;20.950;2022-07-05T02:29:03;22.00;82.90
18454;DHT22;9356;52.202;20.950;2022-07-05T02:30:08;21.90;83.50
18454;DHT22;9356;52.202;20.950;2022-07-05T02:33:44;21.90;85.30
18454;DHT22;9356;52.202;20.950;2022-07-05T02:34:48;21.80;84.00
18454;DHT22;9356;52.202;20.950;2022-07-05T02:35:51;22.00;84.80
18454;DHT22;9356;52.202;20.950;2022-07-05T02:36:55;21.90;83.90
18454;DHT22;9356;52.202;20.950;2022-07-05T02:37:58;21.90;84.50
18454;DHT22;9356;52.202;20.950;2022-07-05T02:39:02;21.90;84.10
18454;DHT22;9356;52.202;20.950;2022-07-05T02:40:08;21.90;84.70
18454;DHT22;9356;52.202;20.950;2022-07-05T02:41:16;21.90;84.90
18454;DHT22;9356;52.202;20.950;2022-07-05T02:42:22;21.90;85.20
18454;DHT22;9356;52.202;20.950;2022-07-05T02:43:25;21.90;84.30
18454;DHT22;9356;52.202;20.950;2022-07-05T02:44:28;21.90;84.50
18454;DHT22;9356;52.202;20.950;2022-07-05T02:45:33;21.80;83.90
18454;DHT22;9356;52.202;20.950;2022-07-05T02:46:35;21.80;85.20
18454;DHT22;9356;52.202;20.950;2022-07-05T02:47:40;21.70;85.50
18454;DHT22;9356;52.202;20.950;2022-07-05T02:48:43;21.90;85.20
18454;DHT22;9356;52.202;20.950;2022-07-05T02:49:47;21.60;85.30
18454;DHT22;9356;52.202;20.950;2022-07-05T02:50:50;21.60;85.00
18454;DHT22;9356;52.202;20.950;2022-07-05T02:51:53;21.60;85.20
18454;DHT22;9356;52.202;20.950;2022-07-05T02:52:56;21.70;86.30
18454;DHT22;9356;52.202;20.950;2022-07-05T02:54:00;21.70;85.50
18454;DHT22;9356;52.202;20.950;2022-07-05T02:55:07;21.80;86.40
18454;DHT22;9356;52.202;20.950;2022-07-05T02:56:11;21.90;85.30
18454;DHT22;9356;52.202;20.950;2022-07-05T02:57:14;22.00;85.30
18454;DHT22;9356;52.202;20.950;2022-07-05T02:58:17;22.00;84.50
18454;DHT22;9356;52.202;20.950;2022-07-05T02:59:20;21.90;84.20
18454;DHT22;9356;52.202;20.950;2022-07-05T03:00:24;21.90;85.20
18454;DHT22;9356;52.202;20.950;2022-07-05T03:01:27;22.00;84.40
18454;DHT22;9356;52.202;20.950;2022-07-05T03:02:35;22.10;84.20
18454;DHT22;9356;52.202;20.950;2022-07-05T03:03:38;22.10;83.60
18454;DHT22;9356;52.202;20.950;2022-07-05T03:04:42;22.00;83.70
18454;DHT22;9356;52.202;20.950;2022-07-05T03:05:45;21.80;85.20
18454;DHT22;9356;52.202;20.950;2022-07-05T03:06:49;21.90;84.90
18454;DHT22;9356;52.202;20.950;2022-07-05T03:07:56;22.00;84.70
18454;DHT22;9356;52.202;20.950;2022-07-05T03:09:01;22.10;84.50
18454;DHT22;9356;52.202;20.950;2022-07-05T03:10:06;22.20;84.20
18454;DHT22;9356;52.202;20.950;2022-07-05T03:11:11;22.30;83.30
18454;DHT22;9356;52.202;20.950;2022-07-05T03:12:14;22.30;83.10
18454;DHT22;9356;52.202;20.950;2022-07-05T03:13:18;22.30;83.90
18454;DHT22;9356;52.202;20.950;2022-07-05T03:14:21;22.40;83.70
18454;DHT22;9356;52.202;20.950;2022-07-05T03:15:25;22.60;83.50
18454;DHT22;9356;52.202;20.950;2022-07-05T03:16:28;22.70;83.00
18454;DHT22;9356;52.202;20.950;2022-07-05T03:17:33;22.80;82.30
18454;DHT22;9356;52.202;20.950;2022-07-05T03:18:36;22.90;81.80
18454;DHT22;9356;52.202;20.950;2022-07-05T03:19:42;22.90;81.10
18454;DHT22;9356;52.202;20.950;2022-07-05T03:20:47;23.00;81.10
18454;DHT22;9356;52.202;20.950;2022-07-05T03:21:52;23.10;80.80
18454;DHT22;9356;52.202;20.950;2022-07-05T03:22:55;23.00;80.90
18454;DHT22;9356;52.202;20.950;2022-07-05T03:24:05;22.90;80.90
18454;DHT22;9356;52.202;20.950;2022-07-05T03:25:12;22.70;80.50
18454;DHT22;9356;52.202;20.950;2022-07-05T03:26:15;22.70;81.70
18454;DHT22;9356;52.202;20.950;2022-07-05T03:27:22;22.60;82.40
18454;DHT22;9356;52.202;20.950;2022-07-05T03:28:27;22.60;81.30
18454;DHT22;9356;52.202;20.950;2022-07-05T03:29:33;22.50;82.10
18454;DHT22;9356;52.202;20.950;2022-07-05T03:30:36;22.40;81.80
18454;DHT22;9356;52.202;20.950;2022-07-05T03:31:40;22.10;82.30
18454;DHT22;9356;52.202;20.950;2022-07-05T03:32:43;22.40;81.90
18454;DHT22;9356;52.202;20.950;2022-07-05T03:33:46;22.30;82.10
18454;DHT22;9356;52.202;20.950;2022-07-05T03:34:49;22.20;82.70
18454;DHT22;9356;52.202;20.950;2022-07-05T03:35:54;22.20;82.50
18454;DHT22;9356;52.202;20.950;2022-07-05T03:36:56;24.60;84.50
18454;DHT22;9356;52.202;20.950;2022-07-05T03:38:00;22.20;83.10
18454;DHT22;9356;52.202;20.950;2022-07-05T03:39:02;22.20;82.90
18454;DHT22;9356;52.202;20.950;2022-07-05T03:40:08;22.20;82.10
18454;DHT22;9356;52.202;20.950;2022-07-05T03:41:14;22.20;82.80
18454;DHT22;9356;52.202;20.950;2022-07-05T03:42:18;22.30;82.50
18454;DHT22;9356;52.202;20.950;2022-07-05T03:43:21;22.20;81.80
18454;DHT22;9356;52.202;20.950;2022-07-05T03:44:24;22.00;81.90
18454;DHT22;9356;52.202;20.950;2022-07-05T03:45:28;21.90;82.50
18454;DHT22;9356;52.202;20.950;2022-07-05T03:46:33;21.90;83.20
18454;DHT22;9356;52.202;20.950;2022-07-05T03:47:36;21.80;82.60
18454;DHT22;9356;52.202;20.950;2022-07-05T03:48:41;21.80;83.10
18454;DHT22;9356;52.202;20.950;2022-07-05T03:49:46;21.80;83.20
18454;DHT22;9356;52.202;20.950;2022-07-05T03:50:51;21.90;83.10
18454;DHT22;9356;52.202;20.950;2022-07-05T03:51:55;21.90;83.10
18454;DHT22;9356;52.202;20.950;2022-07-05T03:53:00;21.90;82.80
18454;DHT22;9356;52.202;20.950;2022-07-05T03:54:03;22.00;82.60
18454;DHT22;9356;52.202;20.950;2022-07-05T03:55:08;21.90;82.60
18454;DHT22;9356;52.202;20.950;2022-07-05T03:56:15;21.90;82.10
18454;DHT22;9356;52.202;20.950;2022-07-05T03:57:25;21.90;83.10
18454;DHT22;9356;52.202;20.950;2022-07-05T03:58:29;21.90;81.90
18454;DHT22;9356;52.202;20.950;2022-07-05T03:59:33;21.90;83.10
18454;DHT22;9356;52.202;20.950;2022-07-05T04:00:37;22.20;83.60
18454;DHT22;9356;52.202;20.950;2022-07-05T04:01:42;21.90;82.70
18454;DHT22;9356;52.202;20.950;2022-07-05T04:02:47;22.00;83.40
18454;DHT22;9356;52.202;20.950;2022-07-05T04:03:52;22.00;83.30
18454;DHT22;9356;52.202;20.950;2022-07-05T04:04:55;22.10;81.30
18454;DHT22;9356;52.202;20.950;2022-07-05T04:05:58;22.10;81.90
18454;DHT22;9356;52.202;20.950;2022-07-05T04:07:02;21.90;82.90
18454;DHT22;9356;52.202;20.950;2022-07-05T04:08:06;21.90;82.40
18454;DHT22;9356;52.202;20.950;2022-07-05T04:09:15;21.90;83.00
18454;DHT22;9356;52.202;20.950;2022-07-05T04:10:19;21.90;81.90
18454;DHT22;9356;52.202;20.950;2022-07-05T04:11:23;21.90;82.70
18454;DHT22;9356;52.202;20.950;2022-07-05T04:12:28;21.90;82.10
18454;DHT22;9356;52.202;20.950;2022-07-05T04:13:31;21.80;82.60
18454;DHT22;9356;52.202;20.950;2022-07-05T04:14:35;21.90;83.30
18454;DHT22;9356;52.202;20.950;2022-07-05T04:15:39;21.90;82.50
18454;DHT22;9356;52.202;20.950;2022-07-05T04:16:41;22.00;82.20
18454;DHT22;9356;52.202;20.950;2022-07-05T04:17:51;22.00;81.70
18454;DHT22;9356;52.202;20.950;2022-07-05T04:19:01;22.00;82.00
18454;DHT22;9356;52.202;20.950;2022-07-05T04:20:09;20.10;80.70
18454;DHT22;9356;52.202;20.950;2022-07-05T04:21:16;22.10;82.00
18454;DHT22;9356;52.202;20.950;2022-07-05T04:22:23;22.20;82.00
18454;DHT22;9356;52.202;20.950;2022-07-05T04:23:26;22.20;81.60
18454;DHT22;9356;52.202;20.950;2022-07-05T04:24:30;22.30;81.20
18454;DHT22;9356;52.202;20.950;2022-07-05T04:25:33;22.30;81.20
18454;DHT22;9356;52.202;20.950;2022-07-05T04:27:00;23.40;81.40
18454;DHT22;9356;52.202;20.950;2022-07-05T04:28:04;22.40;78.80
18454;DHT22;9356;52.202;20.950;2022-07-05T04:29:09;22.30;79.90
18454;DHT22;9356;52.202;20.950;2022-07-05T04:30:16;22.30;79.10
18454;DHT22;9356;52.202;20.950;2022-07-05T04:31:19;22.30;79.70
18454;DHT22;9356;52.202;20.950;2022-07-05T04:32:25;22.30;80.20
18454;DHT22;9356;52.202;20.950;2022-07-05T04:33:27;22.30;80.00
18454;DHT22;9356;52.202;20.950;2022-07-05T04:34:32;22.40;80.20
18454;DHT22;9356;52.202;20.950;2022-07-05T04:35:37;22.30;78.60
18454;DHT22;9356;52.202;20.950;2022-07-05T04:36:40;21.20;78.50
18454;DHT22;9356;52.202;20.950;2022-07-05T04:37:46;22.30;79.80
18454;DHT22;9356;52.202;20.950;2022-07-05T04:38:49;22.30;79.20
18454;DHT22;9356;52.202;20.950;2022-07-05T04:39:54;22.30;78.90
18454;DHT22;9356;52.202;20.950;2022-07-05T04:40:57;22.70;79.30
18454;DHT22;9356;52.202;20.950;2022-07-05T04:42:04;22.20;79.50
18454;DHT22;9356;52.202;20.950;2022-07-05T04:43:07;22.30;80.00
18454;DHT22;9356;52.202;20.950;2022-07-05T04:44:11;23.80;80.10
18454;DHT22;9356;52.202;20.950;2022-07-05T04:45:13;22.30;79.30
18454;DHT22;9356;52.202;20.950;2022-07-05T04:46:17;22.40;79.70
18454;DHT22;9356;52.202;20.950;2022-07-05T04:47:22;22.50;79.00
18454;DHT22;9356;52.202;20.950;2022-07-05T04:48:27;22.60;78.90
18454;DHT22;9356;52.202;20.950;2022-07-05T04:49:31;22.60;78.40
18454;DHT22;9356;52.202;20.950;2022-07-05T04:50:35;22.70;78.40
18454;DHT22;9356;52.202;20.950;2022-07-05T04:51:39;22.80;78.20
18454;DHT22;9356;52.202;20.950;2022-07-05T04:52:48;22.80;77.90
18454;DHT22;9356;52.202;20.950;2022-07-05T04:53:51;22.90;77.60
18454;DHT22;9356;52.202;20.950;2022-07-05T04:54:54;22.90;77.50
18454;DHT22;9356;52.202;20.950;2022-07-05T04:55:57;23.00;75.50
18454;DHT22;9356;52.202;20.950;2022-07-05T04:57:00;22.90;76.30
18454;DHT22;9356;52.202;20.950;2022-07-05T04:58:04;23.00;76.70
18454;DHT22;9356;52.202;20.950;2022-07-05T04:59:07;23.00;77.60
18454;DHT22;9356;52.202;20.950;2022-07-05T05:00:12;23.10;76.20
18454;DHT22;9356;52.202;20.950;2022-07-05T05:01:16;23.10;76.40
18454;DHT22;9356;52.202;20.950;2022-07-05T05:02:18;23.10;76.70
18454;DHT22;9356;52.202;20.950;2022-07-05T05:03:25;23.10;75.10
18454;DHT22;9356;52.202;20.950;2022-07-05T05:04:27;23.20;75.40
18454;DHT22;9356;52.202;20.950;2022-07-05T05:05:31;23.20;74.60
18454;DHT22;9356;52.202;20.950;2022-07-05T05:06:33;23.20;75.70
18454;DHT22;9356;52.202;20.950;2022-07-05T05:07:37;23.30;75.30
18454;DHT22;9356;52.202;20.950;2022-07-05T05:08:43;23.20;74.50
18454;DHT22;9356;52.202;20.950;2022-07-05T05:09:46;23.30;74.10
18454;DHT22;9356;52.202;20.950;2022-07-05T05:10:49;23.20;75.60
18454;DHT22;9356;52.202;20.950;2022-07-05T05:11:53;23.30;75.40
18454;DHT22;9356;52.202;20.950;2022-07-05T05:12:56;23.30;74.90
18454;DHT22;9356;52.202;20.950;2022-07-05T05:14:01;23.30;75.30
18454;DHT22;9356;52.202;20.950;2022-07-05T05:15:04;23.30;74.00
18454;DHT22;9356;52.202;20.950;2022-07-05T05:16:10;23.30;73.70
18454;DHT22;9356;52.202;20.950;2022-07-05T05:17:14;23.20;73.90
18454;DHT22;9356;52.202;20.950;2022-07-05T05:18:17;23.20;74.60
18454;DHT22;9356;52.202;20.950;2022-07-05T05:19:24;23.10;74.40
18454;DHT22;9356;52.202;20.950;2022-07-05T05:20:27;23.00;75.50
18454;DHT22;9356;52.202;20.950;2022-07-05T05:21:30;23.00;74.30
18454;DHT22;9356;52.202;20.950;2022-07-05T05:22:33;23.00;74.80
18454;DHT22;9356;52.202;20.950;2022-07-05T05:23:37;22.80;74.60
18454;DHT22;9356;52.202;20.950;2022-07-05T05:24:39;22.70;75.20
18454;DHT22;9356;52.202;20.950;2022-07-05T05:25:42;22.50;76.10
18454;DHT22;9356;52.202;20.950;2022-07-05T05:26:45;20.40;76.00
18454;DHT22;9356;52.202;20.950;2022-07-05T05:27:49;20.90;75.60
18454;DHT22;9356;52.202;20.950;2022-07-05T05:28:54;22.10;77.00
18454;DHT22;9356;52.202;20.950;2022-07-05T05:29:58;22.10;77.10
18454;DHT22;9356;52.202;20.950;2022-07-05T05:31:01;22.00;77.50
18454;DHT22;9356;52.202;20.950;2022-07-05T05:32:05;21.90;77.30
18454;DHT22;9356;52.202;20.950;2022-07-05T05:33:08;21.80;77.90
18454;DHT22;9356;52.202;20.950;2022-07-05T05:34:11;21.60;78.20
18454;DHT22;9356;52.202;20.950;2022-07-05T05:35:15;21.50;78.90
18454;DHT22;9356;52.202;20.950;2022-07-05T05:36:23;21.50;80.20
18454;DHT22;9356;52.202;20.950;2022-07-05T05:37:26;21.50;80.00
18454;DHT22;9356;52.202;20.950;2022-07-05T05:38:29;21.50;80.50
18454;DHT22;9356;52.202;20.950;2022-07-05T05:39:33;21.50;79.60
18454;DHT22;9356;52.202;20.950;2022-07-05T05:40:35;21.60;80.60
18454;DHT22;9356;52.202;20.950;2022-07-05T05:41:40;21.70;80.40
18454;DHT22;9356;52.202;20.950;2022-07-05T05:42:44;21.80;80.60
18454;DHT22;9356;52.202;20.950;2022-07-05T05:43:48;22.00;79.40
18454;DHT22;9356;52.202;20.950;2022-07-05T05:44:52;22.00;78.10
18454;DHT22;9356;52.202;20.950;2022-07-05T05:45:56;22.00;79.10
18454;DHT22;9356;52.202;20.950;2022-07-05T05:47:00;22.10;77.90
18454;DHT22;9356;52.202;20.950;2022-07-05T05:48:03;22.10;78.70
18454;DHT22;9356;52.202;20.950;2022-07-05T05:49:07;22.20;77.70
18454;DHT22;9356;52.202;20.950;2022-07-05T05:50:09;22.10;77.70
18454;DHT22;9356;52.202;20.950;2022-07-05T05:51:13;22.00;78.00
18454;DHT22;9356;52.202;20.950;2022-07-05T05:52:16;22.00;79.30
18454;DHT22;9356;52.202;20.950;2022-07-05T05:53:19;22.00;78.50
18454;DHT22;9356;52.202;20.950;2022-07-05T05:54:22;22.00;79.10
18454;DHT22;9356;52.202;20.950;2022-07-05T05:55:27;22.10;79.00
18454;DHT22;9356;52.202;20.950;2022-07-05T05:56:30;22.20;78.80
18454;DHT22;9356;52.202;20.950;2022-07-05T05:57:37;22.20;78.70
18454;DHT22;9356;52.202;20.950;2022-07-05T05:58:40;22.20;79.10
18454;DHT22;9356;52.202;20.950;2022-07-05T05:59:45;22.20;79.00
18454;DHT22;9356;52.202;20.950;2022-07-05T06:00:48;22.10;78.70
18454;DHT22;9356;52.202;20.950;2022-07-05T06:01:55;22.10;79.40
18454;DHT22;9356;52.202;20.950;2022-07-05T06:02:59;22.30;79.10
18454;DHT22;9356;52.202;20.950;2022-07-05T06:04:01;22.30;78.90
18454;DHT22;9356;52.202;20.950;2022-07-05T06:05:05;22.30;78.80
18454;DHT22;9356;52.202;20.950;2022-07-05T06:06:09;22.40;78.20
18454;DHT22;9356;52.202;20.950;2022-07-05T06:07:12;21.40;77.80
18454;DHT22;9356;52.202;20.950;2022-07-05T06:08:15;22.60;78.60
18454;DHT22;9356;52.202;20.950;2022-07-05T06:09:18;22.60;77.60
18454;DHT22;9356;52.202;20.950;2022-07-05T06:10:24;22.60;77.20
18454;DHT22;9356;52.202;20.950;2022-07-05T06:11:28;22.50;77.20
18454;DHT22;9356;52.202;20.950;2022-07-05T06:12:31;22.50;77.80
18454;DHT22;9356;52.202;20.950;2022-07-05T06:13:34;22.30;78.30
18454;DHT22;9356;52.202;20.950;2022-07-05T06:14:37;21.10;78.00
18454;DHT22;9356;52.202;20.950;2022-07-05T06:15:41;22.30;78.80
18454;DHT22;9356;52.202;20.950;2022-07-05T06:16:46;22.40;78.70
18454;DHT22;9356;52.202;20.950;2022-07-05T06:17:52;22.50;77.90
18454;DHT22;9356;52.202;20.950;2022-07-05T06:18:55;22.50;78.20
18454;DHT22;9356;52.202;20.950;2022-07-05T06:19:58;21.90;77.20
18454;DHT22;9356;52.202;20.950;2022-07-05T06:21:01;22.60;76.90
18454;DHT22;9356;52.202;20.950;2022-07-05T06:22:04;22.60;76.80
18454;DHT22;9356;52.202;20.950;2022-07-05T06:23:07;22.60;77.00
18454;DHT22;9356;52.202;20.950;2022-07-05T06:24:10;22.70;77.30
18454;DHT22;9356;52.202;20.950;2022-07-05T06:25:14;22.70;77.50
18454;DHT22;9356;52.202;20.950;2022-07-05T06:26:25;22.80;77.10
18454;DHT22;9356;52.202;20.950;2022-07-05T06:27:29;23.20;77.30
18454;DHT22;9356;52.202;20.950;2022-07-05T06:28:33;23.10;77.10
18454;DHT22;9356;52.202;20.950;2022-07-05T06:29:37;23.20;75.90
18454;DHT22;9356;52.202;20.950;2022-07-05T06:30:39;23.20;75.50
18454;DHT22;9356;52.202;20.950;2022-07-05T06:31:43;23.30;75.30
18454;DHT22;9356;52.202;20.950;2022-07-05T06:32:49;23.20;76.00
18454;DHT22;9356;52.202;20.950;2022-07-05T06:33:52;23.10;75.80
18454;DHT22;9356;52.202;20.950;2022-07-05T06:34:56;23.00;75.90
18454;DHT22;9356;52.202;20.950;2022-07-05T06:35:58;23.00;76.20
18454;DHT22;9356;52.202;20.950;2022-07-05T06:37:02;23.00;76.70
18454;DHT22;9356;52.202;20.950;2022-07-05T06:38:06;23.00;76.90
18454;DHT22;9356;52.202;20.950;2022-07-05T06:39:10;23.00;76.60
18454;DHT22;9356;52.202;20.950;2022-07-05T06:40:17;23.10;77.10
18454;DHT22;9356;52.202;20.950;2022-07-05T06:41:21;23.20;77.10
18454;DHT22;9356;52.202;20.950;2022-07-05T06:42:23;23.20;76.60
18454;DHT22;9356;52.202;20.950;2022-07-05T06:43:27;23.30;76.20
18454;DHT22;9356;52.202;20.950;2022-07-05T06:44:36;23.40;76.10
18454;DHT22;9356;52.202;20.950;2022-07-05T06:45:39;23.50;76.10
18454;DHT22;9356;52.202;20.950;2022-07-05T06:46:43;23.60;76.00
18454;DHT22;9356;52.202;20.950;2022-07-05T06:47:55;23.80;75.10
18454;DHT22;9356;52.202;20.950;2022-07-05T06:49:00;23.90;74.60